Terminal Aerodrome Forecast
Issued by NWS

Home | Current Version | Previous Version | Text Only | Print | Product List | Glossary On
Versions: 1 2 3 4 5 6 7 8 9 10 11 12 13 14 15 16 17 18 19
000
FTUS44 KMAF 050200 AAA
TAFINK
TAF AMD
KINK 050210Z 0502/0524 12015G25KT P6SM SCT060 BKN150
      TEMPO 0502/0506 VRB20G35KT P6SM -TSRA BKN035CB
     FM050600 13020G30KT P6SM OVC030
      TEMPO 0506/0509 6SM -TSRA SCT010 OVC020CB
     FM051200 16014KT P6SM SCT010 BKN020=

USA.gov is the U.S. government's official web portal to all federal, state and local government web resources and services.